New Alexandria, Ohio
Current Conditions -  °F | °C
As of 4:53 PM on Sunday 21 Dec 2014 (Local Time) from KHLG Reporting Station
Clear Clear  
Wind Chill: 25°   Ceiling: Unl
Heat Index: 31°   Visibility: 9mi
Dew Point: 22°   Wind: 6mph
Humidity: 69%   Direction: 50°NE
Pressure: 30.22"   Gusts: NA
Location:  40.3094°N, 80.6472°W
Report Text: KHLG 212153Z 05005KT 9SM CLR M01/M06 A3022 RMK AO2 SLP251 T10061056
Loading
Personal Weather Stations






























Interactive Weather Map New forecast layout! Learn more

10-Day Weather Forecast

Advertisements
Track Severe Weather on mobile